KFIG

Clearfield-Lawrence Airport

Clearfield, Pennsylvania, USA
METAR KFIG 221454Z AUTO 22003KT 7SM SCT003 BKN019 OVC041 18/18 A3007 RMK AO2 RAE22 SLP177 P0000 60010 T01830178 58001
Observed Flight Rules
May-22 @ 14:54 UTC (29 minutes ago) Marginal Visual Flight Rules
Wind Visibility Clouds
220° at 3 knots 7 miles
  • Scattered at 300' AGL
  • Broken at 1,900' AGL
  • Overcast at 4,100' AGL
Temperatures Readings Precipitation
Current 18°C / 64°F
Dewpoint 18°C / 64°F
Humidity 100%
Altimeter 30.07" Hg
Pressure 1017.7 hPa
Elevation 462
Current Rain 0.005
METAR KFIG 221454Z AUTO 22003KT 7SM SCT003 BKN019 OVC041 18/18 A3007 RMK AO2 RAE22 SLP177 P0000 60010 T01830178 58001
Observed Flight Rules
May-22 @ 14:54 UTC
(29 minutes ago)
MVFR
Wind Visibility
220° at 3 knots 7 miles
Clouds
  • Scattered at 300' AGL
  • Broken at 1,900' AGL
  • Overcast at 4,100' AGL
Temperature Dewpoint
18°C / 64°F 18°C / 64°F
Humidity Altimeter Pressure
100% 30.07" Hg 1017.7 hPa
Current Rain
0.005